Luro, Sweden

12:51 AM CEST on July 08, 2015 (GMT +0200)
Husaby | | Change Station
CLOSE
Current Station
Personal Weather Station
Location: Husaby, VäSTRA GöTALANDS LäN
Elevation: 295 ft
Nearby Weather Stations

Elev 295 ft 58.53 °N, 13.38 °E | Updated 11 seconds ago

Light Rain
Light Rain
58.1 °F
Feels Like 58.1 °F
N
1.6
Wind Variable Wind from SW
Gusts 3.1 mph

Today
High -- | Low -- °F
--% Chance of Precip.
Yesterday
High -- | Low -- °F
Precip. -- in
4:10 AM 10:13 PM
Waning Gibbous, 60% visible
Pressure 29.50 in
Visibility 6.2 miles
Clouds Few 4800 ft
Scattered Clouds 8000 ft
Dew Point 58 °F
Humidity 99%
Rainfall 0.01 in
Snow Depth Not available.
UV 0 out of 12
Pollen Not available.
Air Quality Not available.
Flu Activity Not available.
METAR ESIB 072220Z AUTO 17007KT 9999 -RA FEW048/// SCT080/// 15/15 Q0999

More Conditions Fewer Conditions

Pressure 29.50 in
Visibility 6.2 miles
Clouds Few 4800 ft
Scattered Clouds 8000 ft
Dew Point 58 °F
Humidity 99%
Rainfall 0.01 in
Snow Depth Not available.
UV 0 out of 12
Pollen Not available.
Air Quality Not available.
Flu Activity Not available.
METAR ESIB 072220Z AUTO 17007KT 9999 -RA FEW048/// SCT080/// 15/15 Q0999

More Conditions Fewer Conditions

10-Day Weather Forecast

×

Almanac

Astronomy

Jul. 08, 2015 Rise Set
Actual Time
Civil Twilight
Nautical Twilight
Astronomical Twilight
Moon
Length of Visible Light
Length of Day
Tomorrow will be .
, % of the Moon is Illuminated

Today's Extremes

Country Highs Country Lows

Community

WunderPhotos

Upload Photos

1,835,941 photos uploaded!

WunderBlogs® & News

Nearby

Air Quality

  Air Quality AQ Index Pollutant
Not available.

Snow Depth

Station Depth Elevation

Earthquake Activity

City Distance Mag. Time & Date
Minimum magnitude displayed is 2.5.

Coastal Water Temperatures

Place Temperature

Stations

Nearby Weather Stations

Station Location Temp. Windchill Dew Point Humidity Wind Precip. Elev Updated Type